sensor_id;sensor_type;location;lat;lon;timestamp;temperature;humidity
48535;DHT22;34323;52.022;5.686;2023-02-15T00:01:08;7.40;99.90
48535;DHT22;34323;52.022;5.686;2023-02-15T00:03:34;7.50;99.90
48535;DHT22;34323;52.022;5.686;2023-02-15T00:06:00;7.50;99.90
48535;DHT22;34323;52.022;5.686;2023-02-15T00:08:26;7.60;99.90
48535;DHT22;34323;52.022;5.686;2023-02-15T00:10:51;7.90;99.90
48535;DHT22;34323;52.022;5.686;2023-02-15T00:13:17;8.00;99.90
48535;DHT22;34323;52.022;5.686;2023-02-15T00:15:42;8.10;99.90
48535;DHT22;34323;52.022;5.686;2023-02-15T00:18:08;8.20;99.90
48535;DHT22;34323;52.022;5.686;2023-02-15T00:20:33;8.20;99.90
48535;DHT22;34323;52.022;5.686;2023-02-15T00:22:59;8.20;99.90
48535;DHT22;34323;52.022;5.686;2023-02-15T00:25:25;8.20;99.90
48535;DHT22;34323;52.022;5.686;2023-02-15T00:27:50;8.20;99.90
48535;DHT22;34323;52.022;5.686;2023-02-15T00:30:16;8.00;99.90
48535;DHT22;34323;52.022;5.686;2023-02-15T00:32:42;7.90;99.90
48535;DHT22;34323;52.022;5.686;2023-02-15T00:35:07;7.60;99.90
48535;DHT22;34323;52.022;5.686;2023-02-15T00:37:34;7.40;99.90
48535;DHT22;34323;52.022;5.686;2023-02-15T00:40:00;7.30;99.90
48535;DHT22;34323;52.022;5.686;2023-02-15T00:42:25;7.20;99.90
48535;DHT22;34323;52.022;5.686;2023-02-15T00:44:51;7.30;99.90
48535;DHT22;34323;52.022;5.686;2023-02-15T00:47:16;7.40;99.90
48535;DHT22;34323;52.022;5.686;2023-02-15T00:49:42;7.30;99.90
48535;DHT22;34323;52.022;5.686;2023-02-15T00:52:07;7.20;99.90
48535;DHT22;34323;52.022;5.686;2023-02-15T00:54:33;7.10;99.90
48535;DHT22;34323;52.022;5.686;2023-02-15T00:57:00;7.20;99.90
48535;DHT22;34323;52.022;5.686;2023-02-15T00:59:25;7.40;99.90
48535;DHT22;34323;52.022;5.686;2023-02-15T01:01:51;7.40;99.90
48535;DHT22;34323;52.022;5.686;2023-02-15T01:04:16;7.20;99.90
48535;DHT22;34323;52.022;5.686;2023-02-15T01:06:42;7.30;99.90
48535;DHT22;34323;52.022;5.686;2023-02-15T01:09:07;7.30;99.90
48535;DHT22;34323;52.022;5.686;2023-02-15T01:11:33;7.20;99.90
48535;DHT22;34323;52.022;5.686;2023-02-15T01:13:59;7.10;99.90
48535;DHT22;34323;52.022;5.686;2023-02-15T01:16:27;7.00;99.90
48535;DHT22;34323;52.022;5.686;2023-02-15T01:18:53;7.10;99.90
48535;DHT22;34323;52.022;5.686;2023-02-15T01:21:22;7.20;99.90
48535;DHT22;34323;52.022;5.686;2023-02-15T01:23:48;7.10;99.90
48535;DHT22;34323;52.022;5.686;2023-02-15T01:26:14;7.10;99.90
48535;DHT22;34323;52.022;5.686;2023-02-15T01:28:40;7.10;99.90
48535;DHT22;34323;52.022;5.686;2023-02-15T01:31:07;7.10;99.90
48535;DHT22;34323;52.022;5.686;2023-02-15T01:33:34;7.20;99.90
48535;DHT22;34323;52.022;5.686;2023-02-15T01:36:00;7.20;99.90
48535;DHT22;34323;52.022;5.686;2023-02-15T01:38:26;7.20;99.90
48535;DHT22;34323;52.022;5.686;2023-02-15T01:40:52;7.20;99.90
48535;DHT22;34323;52.022;5.686;2023-02-15T01:43:18;7.00;99.90
48535;DHT22;34323;52.022;5.686;2023-02-15T01:45:47;7.00;99.90
48535;DHT22;34323;52.022;5.686;2023-02-15T01:48:19;7.00;99.90
48535;DHT22;34323;52.022;5.686;2023-02-15T01:50:56;7.10;99.90
48535;DHT22;34323;52.022;5.686;2023-02-15T01:53:35;7.10;99.90
48535;DHT22;34323;52.022;5.686;2023-02-15T01:56:08;7.10;99.90
48535;DHT22;34323;52.022;5.686;2023-02-15T01:58:35;7.20;99.90
48535;DHT22;34323;52.022;5.686;2023-02-15T02:01:03;7.20;99.90
48535;DHT22;34323;52.022;5.686;2023-02-15T02:06:04;6.80;99.90
48535;DHT22;34323;52.022;5.686;2023-02-15T02:08:31;7.00;99.90
48535;DHT22;34323;52.022;5.686;2023-02-15T02:10:56;7.00;99.90
48535;DHT22;34323;52.022;5.686;2023-02-15T02:13:22;6.80;99.90
48535;DHT22;34323;52.022;5.686;2023-02-15T02:16:11;6.90;99.90
48535;DHT22;34323;52.022;5.686;2023-02-15T02:21:49;7.10;99.90
48535;DHT22;34323;52.022;5.686;2023-02-15T02:24:39;7.00;99.90
48535;DHT22;34323;52.022;5.686;2023-02-15T02:32:42;6.80;99.90
48535;DHT22;34323;52.022;5.686;2023-02-15T02:35:18;6.90;99.90
48535;DHT22;34323;52.022;5.686;2023-02-15T02:38:28;7.00;99.90
48535;DHT22;34323;52.022;5.686;2023-02-15T02:40:55;6.80;99.90
48535;DHT22;34323;52.022;5.686;2023-02-15T02:43:58;6.80;99.90
48535;DHT22;34323;52.022;5.686;2023-02-15T02:46:35;6.80;99.90
48535;DHT22;34323;52.022;5.686;2023-02-15T02:49:02;6.60;99.90
48535;DHT22;34323;52.022;5.686;2023-02-15T02:51:28;6.60;99.90
48535;DHT22;34323;52.022;5.686;2023-02-15T02:53:55;6.80;99.90
48535;DHT22;34323;52.022;5.686;2023-02-15T02:56:32;6.80;99.90
48535;DHT22;34323;52.022;5.686;2023-02-15T02:59:00;6.90;99.90
48535;DHT22;34323;52.022;5.686;2023-02-15T03:01:36;7.00;99.90
48535;DHT22;34323;52.022;5.686;2023-02-15T03:04:08;6.90;99.90
48535;DHT22;34323;52.022;5.686;2023-02-15T03:06:43;6.70;99.90
48535;DHT22;34323;52.022;5.686;2023-02-15T03:09:42;6.70;99.90
48535;DHT22;34323;52.022;5.686;2023-02-15T03:12:14;6.70;99.90
48535;DHT22;34323;52.022;5.686;2023-02-15T03:14:42;6.70;99.90
48535;DHT22;34323;52.022;5.686;2023-02-15T03:17:09;6.90;99.90
48535;DHT22;34323;52.022;5.686;2023-02-15T03:19:38;6.80;99.90
48535;DHT22;34323;52.022;5.686;2023-02-15T03:22:17;6.80;99.90
48535;DHT22;34323;52.022;5.686;2023-02-15T03:25:05;6.80;99.90
48535;DHT22;34323;52.022;5.686;2023-02-15T03:27:40;6.70;99.90
48535;DHT22;34323;52.022;5.686;2023-02-15T03:30:09;6.90;99.90
48535;DHT22;34323;52.022;5.686;2023-02-15T03:32:37;6.90;99.90
48535;DHT22;34323;52.022;5.686;2023-02-15T03:35:03;6.70;99.90
48535;DHT22;34323;52.022;5.686;2023-02-15T03:37:48;6.70;99.90
48535;DHT22;34323;52.022;5.686;2023-02-15T03:40:41;6.70;99.90
48535;DHT22;34323;52.022;5.686;2023-02-15T03:44:27;6.80;99.90
48535;DHT22;34323;52.022;5.686;2023-02-15T03:47:00;6.80;99.90
48535;DHT22;34323;52.022;5.686;2023-02-15T03:49:48;6.70;99.90
48535;DHT22;34323;52.022;5.686;2023-02-15T03:52:16;6.80;99.90
48535;DHT22;34323;52.022;5.686;2023-02-15T03:54:43;6.90;99.90
48535;DHT22;34323;52.022;5.686;2023-02-15T03:57:25;6.90;99.90
48535;DHT22;34323;52.022;5.686;2023-02-15T04:00:17;6.90;99.90
48535;DHT22;34323;52.022;5.686;2023-02-15T04:03:26;6.60;99.90
48535;DHT22;34323;52.022;5.686;2023-02-15T04:05:56;6.70;99.90
48535;DHT22;34323;52.022;5.686;2023-02-15T04:08:22;6.70;99.90
48535;DHT22;34323;52.022;5.686;2023-02-15T04:11:07;6.70;99.90
48535;DHT22;34323;52.022;5.686;2023-02-15T04:13:33;6.60;99.90
48535;DHT22;34323;52.022;5.686;2023-02-15T04:15:59;6.60;99.90
48535;DHT22;34323;52.022;5.686;2023-02-15T04:18:34;6.50;99.90
48535;DHT22;34323;52.022;5.686;2023-02-15T04:21:20;6.60;99.90
48535;DHT22;34323;52.022;5.686;2023-02-15T04:24:05;6.70;99.90
48535;DHT22;34323;52.022;5.686;2023-02-15T04:26:50;6.60;99.90
48535;DHT22;34323;52.022;5.686;2023-02-15T04:29:22;6.50;99.90
48535;DHT22;34323;52.022;5.686;2023-02-15T04:31:48;6.50;99.90
48535;DHT22;34323;52.022;5.686;2023-02-15T04:34:14;6.40;99.90
48535;DHT22;34323;52.022;5.686;2023-02-15T04:36:40;6.50;99.90
48535;DHT22;34323;52.022;5.686;2023-02-15T04:39:07;6.70;99.90
48535;DHT22;34323;52.022;5.686;2023-02-15T04:41:33;6.60;99.90
48535;DHT22;34323;52.022;5.686;2023-02-15T04:43:59;6.50;99.90
48535;DHT22;34323;52.022;5.686;2023-02-15T04:46:26;6.30;99.90
48535;DHT22;34323;52.022;5.686;2023-02-15T04:48:52;6.30;99.90
48535;DHT22;34323;52.022;5.686;2023-02-15T04:51:17;6.50;99.90
48535;DHT22;34323;52.022;5.686;2023-02-15T04:53:43;6.30;99.90
48535;DHT22;34323;52.022;5.686;2023-02-15T04:56:08;6.40;99.90
48535;DHT22;34323;52.022;5.686;2023-02-15T04:58:34;6.40;99.90
48535;DHT22;34323;52.022;5.686;2023-02-15T05:01:00;6.20;99.90
48535;DHT22;34323;52.022;5.686;2023-02-15T05:03:26;6.20;99.90
48535;DHT22;34323;52.022;5.686;2023-02-15T05:05:52;6.30;99.90
48535;DHT22;34323;52.022;5.686;2023-02-15T05:08:17;6.40;99.90
48535;DHT22;34323;52.022;5.686;2023-02-15T05:10:43;6.20;99.90
48535;DHT22;34323;52.022;5.686;2023-02-15T05:13:08;6.10;99.90
48535;DHT22;34323;52.022;5.686;2023-02-15T05:15:34;6.10;99.90
48535;DHT22;34323;52.022;5.686;2023-02-15T05:18:00;6.00;99.90
48535;DHT22;34323;52.022;5.686;2023-02-15T05:20:27;6.20;99.90
48535;DHT22;34323;52.022;5.686;2023-02-15T05:22:55;6.40;99.90
48535;DHT22;34323;52.022;5.686;2023-02-15T05:25:21;6.40;99.90
48535;DHT22;34323;52.022;5.686;2023-02-15T05:28:09;6.40;99.90
48535;DHT22;34323;52.022;5.686;2023-02-15T05:30:45;6.40;99.90
48535;DHT22;34323;52.022;5.686;2023-02-15T05:33:10;6.50;99.90
48535;DHT22;34323;52.022;5.686;2023-02-15T05:35:36;6.60;99.90
48535;DHT22;34323;52.022;5.686;2023-02-15T05:38:01;6.50;99.90
48535;DHT22;34323;52.022;5.686;2023-02-15T05:40:27;6.70;99.90
48535;DHT22;34323;52.022;5.686;2023-02-15T05:42:52;6.60;99.90
48535;DHT22;34323;52.022;5.686;2023-02-15T05:45:18;6.40;99.90
48535;DHT22;34323;52.022;5.686;2023-02-15T05:47:44;6.30;99.90
48535;DHT22;34323;52.022;5.686;2023-02-15T05:50:10;6.30;99.90
48535;DHT22;34323;52.022;5.686;2023-02-15T05:52:36;6.30;99.90
48535;DHT22;34323;52.022;5.686;2023-02-15T05:55:02;6.30;99.90
48535;DHT22;34323;52.022;5.686;2023-02-15T05:57:29;6.30;99.90
48535;DHT22;34323;52.022;5.686;2023-02-15T05:59:55;6.50;99.90
48535;DHT22;34323;52.022;5.686;2023-02-15T06:02:21;6.30;99.90
48535;DHT22;34323;52.022;5.686;2023-02-15T06:04:47;6.30;99.90
48535;DHT22;34323;52.022;5.686;2023-02-15T06:07:12;6.20;99.90
48535;DHT22;34323;52.022;5.686;2023-02-15T06:09:38;6.10;99.90
48535;DHT22;34323;52.022;5.686;2023-02-15T06:12:03;6.00;99.90
48535;DHT22;34323;52.022;5.686;2023-02-15T06:14:29;6.20;99.90
48535;DHT22;34323;52.022;5.686;2023-02-15T06:16:54;6.30;99.90
48535;DHT22;34323;52.022;5.686;2023-02-15T06:19:20;6.40;99.90
48535;DHT22;34323;52.022;5.686;2023-02-15T06:21:46;6.30;99.90
48535;DHT22;34323;52.022;5.686;2023-02-15T06:24:12;6.20;99.90
48535;DHT22;34323;52.022;5.686;2023-02-15T06:26:37;6.20;99.90
48535;DHT22;34323;52.022;5.686;2023-02-15T06:29:03;6.10;99.90
48535;DHT22;34323;52.022;5.686;2023-02-15T06:31:29;6.10;99.90
48535;DHT22;34323;52.022;5.686;2023-02-15T06:33:54;6.30;99.90
48535;DHT22;34323;52.022;5.686;2023-02-15T06:36:30;6.30;99.90
48535;DHT22;34323;52.022;5.686;2023-02-15T06:38:56;6.20;99.90
48535;DHT22;34323;52.022;5.686;2023-02-15T06:41:22;6.10;99.90
48535;DHT22;34323;52.022;5.686;2023-02-15T06:43:48;6.30;99.90
48535;DHT22;34323;52.022;5.686;2023-02-15T06:46:13;6.40;99.90
48535;DHT22;34323;52.022;5.686;2023-02-15T06:48:39;6.60;99.90
48535;DHT22;34323;52.022;5.686;2023-02-15T06:51:05;6.60;99.90
48535;DHT22;34323;52.022;5.686;2023-02-15T06:53:30;6.60;99.90
48535;DHT22;34323;52.022;5.686;2023-02-15T06:56:06;6.70;99.90
48535;DHT22;34323;52.022;5.686;2023-02-15T06:58:35;6.70;99.90
48535;DHT22;34323;52.022;5.686;2023-02-15T07:01:00;6.70;99.90
48535;DHT22;34323;52.022;5.686;2023-02-15T07:03:26;6.70;99.90
48535;DHT22;34323;52.022;5.686;2023-02-15T07:05:55;6.40;99.90
48535;DHT22;34323;52.022;5.686;2023-02-15T07:08:21;6.20;99.90
48535;DHT22;34323;52.022;5.686;2023-02-15T07:10:48;6.20;99.90
48535;DHT22;34323;52.022;5.686;2023-02-15T07:13:14;6.30;99.90
48535;DHT22;34323;52.022;5.686;2023-02-15T07:15:40;6.30;99.90
48535;DHT22;34323;52.022;5.686;2023-02-15T07:18:05;6.30;99.90
48535;DHT22;34323;52.022;5.686;2023-02-15T07:20:31;6.30;99.90
48535;DHT22;34323;52.022;5.686;2023-02-15T07:22:58;6.50;99.90
48535;DHT22;34323;52.022;5.686;2023-02-15T07:25:24;6.60;99.90
48535;DHT22;34323;52.022;5.686;2023-02-15T07:27:56;6.70;99.90
48535;DHT22;34323;52.022;5.686;2023-02-15T07:30:22;6.60;99.90
48535;DHT22;34323;52.022;5.686;2023-02-15T07:32:48;6.70;99.90
48535;DHT22;34323;52.022;5.686;2023-02-15T07:35:32;6.60;99.90
48535;DHT22;34323;52.022;5.686;2023-02-15T07:37:58;6.40;99.90
48535;DHT22;34323;52.022;5.686;2023-02-15T07:40:24;6.20;99.90
48535;DHT22;34323;52.022;5.686;2023-02-15T07:42:50;6.30;99.90
48535;DHT22;34323;52.022;5.686;2023-02-15T07:45:18;6.40;99.90
48535;DHT22;34323;52.022;5.686;2023-02-15T07:47:44;6.30;99.90
48535;DHT22;34323;52.022;5.686;2023-02-15T07:50:09;6.40;99.90
48535;DHT22;34323;52.022;5.686;2023-02-15T07:52:35;6.50;99.90
48535;DHT22;34323;52.022;5.686;2023-02-15T07:55:00;6.70;99.90
48535;DHT22;34323;52.022;5.686;2023-02-15T07:57:26;6.90;99.90
48535;DHT22;34323;52.022;5.686;2023-02-15T07:59:51;6.80;99.90
48535;DHT22;34323;52.022;5.686;2023-02-15T08:02:17;6.70;99.90
48535;DHT22;34323;52.022;5.686;2023-02-15T08:04:42;6.60;99.90
48535;DHT22;34323;52.022;5.686;2023-02-15T08:07:08;6.60;99.90
48535;DHT22;34323;52.022;5.686;2023-02-15T08:09:33;6.60;99.90
48535;DHT22;34323;52.022;5.686;2023-02-15T08:11:59;6.80;99.90
48535;DHT22;34323;52.022;5.686;2023-02-15T08:14:26;7.00;99.90
48535;DHT22;34323;52.022;5.686;2023-02-15T08:16:54;7.10;99.90
48535;DHT22;34323;52.022;5.686;2023-02-15T08:19:26;7.00;99.90
48535;DHT22;34323;52.022;5.686;2023-02-15T08:21:56;7.00;99.90
48535;DHT22;34323;52.022;5.686;2023-02-15T08:24:25;7.00;99.90
48535;DHT22;34323;52.022;5.686;2023-02-15T08:26:51;7.30;99.90
48535;DHT22;34323;52.022;5.686;2023-02-15T08:29:19;7.70;99.90
48535;DHT22;34323;52.022;5.686;2023-02-15T08:31:46;8.10;99.90
48535;DHT22;34323;52.022;5.686;2023-02-15T08:34:15;8.50;99.90
48535;DHT22;34323;52.022;5.686;2023-02-15T08:36:42;9.00;99.90
48535;DHT22;34323;52.022;5.686;2023-02-15T08:39:08;9.50;99.90
48535;DHT22;34323;52.022;5.686;2023-02-15T08:41:35;9.70;99.90
48535;DHT22;34323;52.022;5.686;2023-02-15T08:44:03;9.70;99.90
48535;DHT22;34323;52.022;5.686;2023-02-15T08:46:31;9.50;99.90
48535;DHT22;34323;52.022;5.686;2023-02-15T08:48:57;9.50;99.90
48535;DHT22;34323;52.022;5.686;2023-02-15T08:51:25;9.50;99.90
48535;DHT22;34323;52.022;5.686;2023-02-15T08:53:53;9.50;99.90
48535;DHT22;34323;52.022;5.686;2023-02-15T08:56:21;9.70;99.90
48535;DHT22;34323;52.022;5.686;2023-02-15T08:58:47;10.10;99.90
48535;DHT22;34323;52.022;5.686;2023-02-15T09:01:16;10.30;99.90
48535;DHT22;34323;52.022;5.686;2023-02-15T09:03:50;10.20;99.90
48535;DHT22;34323;52.022;5.686;2023-02-15T09:06:19;10.70;99.90
48535;DHT22;34323;52.022;5.686;2023-02-15T09:08:45;11.00;99.90
48535;DHT22;34323;52.022;5.686;2023-02-15T09:11:13;11.50;99.90
48535;DHT22;34323;52.022;5.686;2023-02-15T09:13:42;12.00;99.90
48535;DHT22;34323;52.022;5.686;2023-02-15T09:16:08;12.50;99.90
48535;DHT22;34323;52.022;5.686;2023-02-15T09:18:36;12.60;99.90
48535;DHT22;34323;52.022;5.686;2023-02-15T09:21:09;13.00;99.90
48535;DHT22;34323;52.022;5.686;2023-02-15T09:23:36;13.00;99.90
48535;DHT22;34323;52.022;5.686;2023-02-15T09:26:03;13.20;99.90
48535;DHT22;34323;52.022;5.686;2023-02-15T09:28:30;13.30;99.90
48535;DHT22;34323;52.022;5.686;2023-02-15T09:31:03;13.40;99.90
48535;DHT22;34323;52.022;5.686;2023-02-15T09:33:29;13.10;99.90
48535;DHT22;34323;52.022;5.686;2023-02-15T09:35:55;13.00;99.90
48535;DHT22;34323;52.022;5.686;2023-02-15T09:38:22;13.30;99.90
48535;DHT22;34323;52.022;5.686;2023-02-15T09:40:56;13.60;99.90
48535;DHT22;34323;52.022;5.686;2023-02-15T09:43:46;13.40;99.90
48535;DHT22;34323;52.022;5.686;2023-02-15T09:46:24;13.90;99.90
48535;DHT22;34323;52.022;5.686;2023-02-15T09:48:58;13.70;99.90
48535;DHT22;34323;52.022;5.686;2023-02-15T09:54:35;13.60;99.90
48535;DHT22;34323;52.022;5.686;2023-02-15T09:57:10;13.30;99.90
48535;DHT22;34323;52.022;5.686;2023-02-15T09:59:52;12.90;99.90
48535;DHT22;34323;52.022;5.686;2023-02-15T10:10:58;11.20;99.90
48535;DHT22;34323;52.022;5.686;2023-02-15T10:14:28;11.30;99.90
48535;DHT22;34323;52.022;5.686;2023-02-15T10:23:08;11.10;99.90
48535;DHT22;34323;52.022;5.686;2023-02-15T10:25:51;11.10;99.90
48535;DHT22;34323;52.022;5.686;2023-02-15T10:28:23;10.90;99.90
48535;DHT22;34323;52.022;5.686;2023-02-15T10:30:51;11.10;99.90
48535;DHT22;34323;52.022;5.686;2023-02-15T10:33:26;11.80;99.90
48535;DHT22;34323;52.022;5.686;2023-02-15T10:47:52;13.30;99.90
48535;DHT22;34323;52.022;5.686;2023-02-15T10:50:55;13.30;99.90
48535;DHT22;34323;52.022;5.686;2023-02-15T10:56:02;14.40;99.90
48535;DHT22;34323;52.022;5.686;2023-02-15T10:58:37;14.90;99.90
48535;DHT22;34323;52.022;5.686;2023-02-15T11:01:13;16.00;99.90
48535;DHT22;34323;52.022;5.686;2023-02-15T11:04:32;16.80;99.90
48535;DHT22;34323;52.022;5.686;2023-02-15T11:07:10;17.90;99.90
48535;DHT22;34323;52.022;5.686;2023-02-15T11:09:46;18.50;99.90
48535;DHT22;34323;52.022;5.686;2023-02-15T11:12:17;19.40;99.90
48535;DHT22;34323;52.022;5.686;2023-02-15T11:17:41;18.20;99.90
48535;DHT22;34323;52.022;5.686;2023-02-15T11:20:35;17.90;99.90
48535;DHT22;34323;52.022;5.686;2023-02-15T11:23:15;18.20;99.90
48535;DHT22;34323;52.022;5.686;2023-02-15T11:25:43;18.90;99.90
48535;DHT22;34323;52.022;5.686;2023-02-15T11:28:27;18.80;99.90
48535;DHT22;34323;52.022;5.686;2023-02-15T11:30:56;18.60;99.90
48535;DHT22;34323;52.022;5.686;2023-02-15T11:33:27;18.10;99.90
48535;DHT22;34323;52.022;5.686;2023-02-15T11:36:06;17.80;99.90
48535;DHT22;34323;52.022;5.686;2023-02-15T11:38:36;17.10;99.90
48535;DHT22;34323;52.022;5.686;2023-02-15T11:41:11;16.70;99.90
48535;DHT22;34323;52.022;5.686;2023-02-15T11:43:43;16.60;99.90
48535;DHT22;34323;52.022;5.686;2023-02-15T11:46:11;16.10;99.90
48535;DHT22;34323;52.022;5.686;2023-02-15T11:48:38;15.60;99.90
48535;DHT22;34323;52.022;5.686;2023-02-15T11:51:04;15.40;99.90
48535;DHT22;34323;52.022;5.686;2023-02-15T11:53:36;15.10;99.90
48535;DHT22;34323;52.022;5.686;2023-02-15T11:56:03;14.60;99.90
48535;DHT22;34323;52.022;5.686;2023-02-15T11:58:41;14.80;99.90
48535;DHT22;34323;52.022;5.686;2023-02-15T12:03:51;15.90;99.90
48535;DHT22;34323;52.022;5.686;2023-02-15T12:06:27;16.50;99.90
48535;DHT22;34323;52.022;5.686;2023-02-15T12:09:12;17.50;99.90
48535;DHT22;34323;52.022;5.686;2023-02-15T12:11:41;17.80;99.90
48535;DHT22;34323;52.022;5.686;2023-02-15T12:14:09;17.90;99.90
48535;DHT22;34323;52.022;5.686;2023-02-15T12:16:47;18.70;99.90
48535;DHT22;34323;52.022;5.686;2023-02-15T12:19:32;19.40;99.90
48535;DHT22;34323;52.022;5.686;2023-02-15T12:22:01;18.50;99.90
48535;DHT22;34323;52.022;5.686;2023-02-15T12:24:30;17.80;99.90
48535;DHT22;34323;52.022;5.686;2023-02-15T12:27:19;17.30;99.90
48535;DHT22;34323;52.022;5.686;2023-02-15T12:32:22;17.10;99.90
48535;DHT22;34323;52.022;5.686;2023-02-15T12:34:51;16.80;99.90
48535;DHT22;34323;52.022;5.686;2023-02-15T12:37:20;16.30;99.90
48535;DHT22;34323;52.022;5.686;2023-02-15T12:39:56;16.50;99.90
48535;DHT22;34323;52.022;5.686;2023-02-15T12:42:23;16.80;99.90
48535;DHT22;34323;52.022;5.686;2023-02-15T12:45:08;16.50;99.90
48535;DHT22;34323;52.022;5.686;2023-02-15T12:47:44;16.30;99.90
48535;DHT22;34323;52.022;5.686;2023-02-15T12:52:46;17.10;99.90
48535;DHT22;34323;52.022;5.686;2023-02-15T12:55:24;17.20;99.90
48535;DHT22;34323;52.022;5.686;2023-02-15T12:58:05;17.20;99.90
48535;DHT22;34323;52.022;5.686;2023-02-15T13:00:31;16.70;99.90
48535;DHT22;34323;52.022;5.686;2023-02-15T13:02:58;16.30;99.90
48535;DHT22;34323;52.022;5.686;2023-02-15T13:07:57;17.10;99.90
48535;DHT22;34323;52.022;5.686;2023-02-15T13:10:29;17.40;99.90
48535;DHT22;34323;52.022;5.686;2023-02-15T13:12:56;17.20;99.90
48535;DHT22;34323;52.022;5.686;2023-02-15T13:17:55;17.60;99.90
48535;DHT22;34323;52.022;5.686;2023-02-15T13:20:22;17.80;99.90
48535;DHT22;34323;52.022;5.686;2023-02-15T13:22:51;17.80;99.90
48535;DHT22;34323;52.022;5.686;2023-02-15T13:25:24;17.80;99.90
48535;DHT22;34323;52.022;5.686;2023-02-15T13:27:56;17.90;99.90
48535;DHT22;34323;52.022;5.686;2023-02-15T13:30:34;17.70;99.90
48535;DHT22;34323;52.022;5.686;2023-02-15T13:33:06;18.20;99.90
48535;DHT22;34323;52.022;5.686;2023-02-15T13:37:00;18.30;99.90
48535;DHT22;34323;52.022;5.686;2023-02-15T13:39:15;17.90;99.90
48535;DHT22;34323;52.022;5.686;2023-02-15T13:41:53;17.90;99.90
48535;DHT22;34323;52.022;5.686;2023-02-15T13:44:32;17.90;99.90
48535;DHT22;34323;52.022;5.686;2023-02-15T13:47:17;18.20;99.90
48535;DHT22;34323;52.022;5.686;2023-02-15T13:50:10;18.40;99.90
48535;DHT22;34323;52.022;5.686;2023-02-15T13:52:54;18.80;99.90
48535;DHT22;34323;52.022;5.686;2023-02-15T14:01:30;17.70;99.90
48535;DHT22;34323;52.022;5.686;2023-02-15T14:15:53;17.30;99.90
48535;DHT22;34323;52.022;5.686;2023-02-15T14:18:39;16.70;99.90
48535;DHT22;34323;52.022;5.686;2023-02-15T14:21:30;16.40;99.90
48535;DHT22;34323;52.022;5.686;2023-02-15T14:26:52;16.60;99.90
48535;DHT22;34323;52.022;5.686;2023-02-15T14:29:27;17.20;99.90
48535;DHT22;34323;52.022;5.686;2023-02-15T14:32:12;17.60;99.90
48535;DHT22;34323;52.022;5.686;2023-02-15T14:35:09;18.10;99.90
48535;DHT22;34323;52.022;5.686;2023-02-15T14:37:59;18.40;99.90
48535;DHT22;34323;52.022;5.686;2023-02-15T14:40:58;17.90;99.90
48535;DHT22;34323;52.022;5.686;2023-02-15T14:43:56;17.90;99.90
48535;DHT22;34323;52.022;5.686;2023-02-15T14:46:34;17.80;99.90
48535;DHT22;34323;52.022;5.686;2023-02-15T14:49:31;17.50;99.90
48535;DHT22;34323;52.022;5.686;2023-02-15T14:52:00;17.60;99.90
48535;DHT22;34323;52.022;5.686;2023-02-15T15:02:46;17.90;99.90
48535;DHT22;34323;52.022;5.686;2023-02-15T15:07:54;17.60;99.90
48535;DHT22;34323;52.022;5.686;2023-02-15T15:12:51;17.40;99.90
48535;DHT22;34323;52.022;5.686;2023-02-15T15:18:07;17.40;99.90
48535;DHT22;34323;52.022;5.686;2023-02-15T15:20:49;17.40;99.90
48535;DHT22;34323;52.022;5.686;2023-02-15T15:25:46;17.60;99.90
48535;DHT22;34323;52.022;5.686;2023-02-15T15:31:28;17.00;99.90
48535;DHT22;34323;52.022;5.686;2023-02-15T15:34:59;17.20;99.90
48535;DHT22;34323;52.022;5.686;2023-02-15T15:46:00;16.70;99.90
48535;DHT22;34323;52.022;5.686;2023-02-15T15:48:34;16.50;99.90
48535;DHT22;34323;52.022;5.686;2023-02-15T15:51:14;16.70;99.90
48535;DHT22;34323;52.022;5.686;2023-02-15T15:53:46;16.90;99.90
48535;DHT22;34323;52.022;5.686;2023-02-15T15:56:26;16.90;99.90
48535;DHT22;34323;52.022;5.686;2023-02-15T15:58:59;17.20;99.90
48535;DHT22;34323;52.022;5.686;2023-02-15T16:01:30;17.30;99.90
48535;DHT22;34323;52.022;5.686;2023-02-15T16:03:58;17.40;99.90
48535;DHT22;34323;52.022;5.686;2023-02-15T16:06:50;17.60;99.90
48535;DHT22;34323;52.022;5.686;2023-02-15T16:09:22;17.70;99.90
48535;DHT22;34323;52.022;5.686;2023-02-15T16:11:53;17.50;99.90
48535;DHT22;34323;52.022;5.686;2023-02-15T16:14:35;17.20;99.90
48535;DHT22;34323;52.022;5.686;2023-02-15T16:17:05;16.90;99.90
48535;DHT22;34323;52.022;5.686;2023-02-15T16:19:34;16.70;99.90
48535;DHT22;34323;52.022;5.686;2023-02-15T16:22:02;16.70;99.90
48535;DHT22;34323;52.022;5.686;2023-02-15T16:27:29;16.10;99.90
48535;DHT22;34323;52.022;5.686;2023-02-15T16:29:56;15.80;99.90
48535;DHT22;34323;52.022;5.686;2023-02-15T16:32:24;15.90;99.90
48535;DHT22;34323;52.022;5.686;2023-02-15T16:37:21;15.70;99.90
48535;DHT22;34323;52.022;5.686;2023-02-15T16:39:49;15.50;99.90
48535;DHT22;34323;52.022;5.686;2023-02-15T16:42:16;15.40;99.90
48535;DHT22;34323;52.022;5.686;2023-02-15T16:44:46;15.30;99.90
48535;DHT22;34323;52.022;5.686;2023-02-15T16:47:19;15.00;99.90
48535;DHT22;34323;52.022;5.686;2023-02-15T16:49:47;15.10;99.90
48535;DHT22;34323;52.022;5.686;2023-02-15T16:52:20;15.30;99.90
48535;DHT22;34323;52.022;5.686;2023-02-15T16:54:49;15.30;99.90
48535;DHT22;34323;52.022;5.686;2023-02-15T16:57:20;15.10;99.90
48535;DHT22;34323;52.022;5.686;2023-02-15T16:59:48;15.10;99.90
48535;DHT22;34323;52.022;5.686;2023-02-15T17:02:21;14.90;99.90
48535;DHT22;34323;52.022;5.686;2023-02-15T17:05:20;14.80;99.90
48535;DHT22;34323;52.022;5.686;2023-02-15T17:10:44;14.90;99.90
48535;DHT22;34323;52.022;5.686;2023-02-15T17:13:12;14.80;99.90
48535;DHT22;34323;52.022;5.686;2023-02-15T17:15:40;14.80;99.90
48535;DHT22;34323;52.022;5.686;2023-02-15T17:18:16;14.80;99.90
48535;DHT22;34323;52.022;5.686;2023-02-15T17:20:44;14.80;99.90
48535;DHT22;34323;52.022;5.686;2023-02-15T17:23:33;14.50;99.90
48535;DHT22;34323;52.022;5.686;2023-02-15T17:26:10;14.50;99.90
48535;DHT22;34323;52.022;5.686;2023-02-15T17:28:37;14.50;99.90
48535;DHT22;34323;52.022;5.686;2023-02-15T17:31:06;14.60;99.90
48535;DHT22;34323;52.022;5.686;2023-02-15T17:39:03;14.30;99.90
48535;DHT22;34323;52.022;5.686;2023-02-15T17:41:31;14.10;99.90
48535;DHT22;34323;52.022;5.686;2023-02-15T17:43:58;14.20;99.90
48535;DHT22;34323;52.022;5.686;2023-02-15T17:46:24;14.20;99.90
48535;DHT22;34323;52.022;5.686;2023-02-15T17:48:51;14.00;99.90
48535;DHT22;34323;52.022;5.686;2023-02-15T17:51:18;13.90;99.90
48535;DHT22;34323;52.022;5.686;2023-02-15T17:53:45;13.90;99.90
48535;DHT22;34323;52.022;5.686;2023-02-15T17:56:34;13.80;99.90
48535;DHT22;34323;52.022;5.686;2023-02-15T17:59:00;13.60;99.90
48535;DHT22;34323;52.022;5.686;2023-02-15T18:01:26;13.30;99.90
48535;DHT22;34323;52.022;5.686;2023-02-15T18:04:14;12.90;99.90
48535;DHT22;34323;52.022;5.686;2023-02-15T18:06:59;12.70;99.90
48535;DHT22;34323;52.022;5.686;2023-02-15T18:09:43;12.20;99.90
48535;DHT22;34323;52.022;5.686;2023-02-15T18:12:33;12.50;99.90
48535;DHT22;34323;52.022;5.686;2023-02-15T18:15:01;12.40;99.90